sensor_id;sensor_type;location;lat;lon;timestamp;P1;durP1;ratioP1;P2;durP2;ratioP2
43678;SDS011;29279;50.858;4.392;2023-03-01T00:01:31;15.30;;;8.13;;
43678;SDS011;29279;50.858;4.392;2023-03-01T00:03:57;14.35;;;8.27;;
43678;SDS011;29279;50.858;4.392;2023-03-01T00:06:24;13.30;;;8.10;;
43678;SDS011;29279;50.858;4.392;2023-03-01T00:08:51;13.15;;;7.78;;
43678;SDS011;29279;50.858;4.392;2023-03-01T00:11:24;13.82;;;7.65;;
43678;SDS011;29279;50.858;4.392;2023-03-01T00:13:53;11.40;;;7.13;;
43678;SDS011;29279;50.858;4.392;2023-03-01T00:16:28;16.60;;;7.03;;
43678;SDS011;29279;50.858;4.392;2023-03-01T00:18:55;13.90;;;7.78;;
43678;SDS011;29279;50.858;4.392;2023-03-01T00:21:22;16.13;;;7.00;;
43678;SDS011;29279;50.858;4.392;2023-03-01T00:23:48;13.07;;;7.47;;
43678;SDS011;29279;50.858;4.392;2023-03-01T00:26:15;11.85;;;7.57;;
43678;SDS011;29279;50.858;4.392;2023-03-01T00:28:43;12.38;;;7.35;;
43678;SDS011;29279;50.858;4.392;2023-03-01T00:31:16;19.10;;;8.57;;
43678;SDS011;29279;50.858;4.392;2023-03-01T00:33:44;13.90;;;7.93;;
43678;SDS011;29279;50.858;4.392;2023-03-01T00:36:11;12.77;;;7.47;;
43678;SDS011;29279;50.858;4.392;2023-03-01T00:38:40;19.05;;;8.25;;
43678;SDS011;29279;50.858;4.392;2023-03-01T00:41:08;16.67;;;8.02;;
43678;SDS011;29279;50.858;4.392;2023-03-01T00:43:36;13.20;;;8.00;;
43678;SDS011;29279;50.858;4.392;2023-03-01T00:46:06;16.35;;;8.40;;
43678;SDS011;29279;50.858;4.392;2023-03-01T00:48:37;16.05;;;7.80;;
43678;SDS011;29279;50.858;4.392;2023-03-01T00:51:06;13.75;;;7.35;;
43678;SDS011;29279;50.858;4.392;2023-03-01T00:53:37;14.77;;;7.78;;
43678;SDS011;29279;50.858;4.392;2023-03-01T00:56:03;12.85;;;7.78;;
43678;SDS011;29279;50.858;4.392;2023-03-01T00:58:30;12.35;;;7.35;;
43678;SDS011;29279;50.858;4.392;2023-03-01T01:00:56;14.15;;;7.78;;
43678;SDS011;29279;50.858;4.392;2023-03-01T01:03:21;12.43;;;7.57;;
43678;SDS011;29279;50.858;4.392;2023-03-01T01:05:49;15.15;;;7.90;;
43678;SDS011;29279;50.858;4.392;2023-03-01T01:08:16;14.60;;;8.02;;
43678;SDS011;29279;50.858;4.392;2023-03-01T01:10:43;14.43;;;7.55;;
43678;SDS011;29279;50.858;4.392;2023-03-01T01:13:09;12.48;;;7.72;;
43678;SDS011;29279;50.858;4.392;2023-03-01T01:15:35;15.88;;;8.13;;
43678;SDS011;29279;50.858;4.392;2023-03-01T01:18:01;15.35;;;9.13;;
43678;SDS011;29279;50.858;4.392;2023-03-01T01:20:27;14.48;;;8.05;;
43678;SDS011;29279;50.858;4.392;2023-03-01T01:22:53;14.82;;;8.32;;
43678;SDS011;29279;50.858;4.392;2023-03-01T01:25:19;15.00;;;8.10;;
43678;SDS011;29279;50.858;4.392;2023-03-01T01:27:44;15.25;;;8.23;;
43678;SDS011;29279;50.858;4.392;2023-03-01T01:30:10;19.20;;;7.75;;
43678;SDS011;29279;50.858;4.392;2023-03-01T01:32:39;13.75;;;7.93;;
43678;SDS011;29279;50.858;4.392;2023-03-01T01:35:05;13.30;;;7.57;;
43678;SDS011;29279;50.858;4.392;2023-03-01T01:37:31;10.95;;;7.47;;
43678;SDS011;29279;50.858;4.392;2023-03-01T01:40:02;13.80;;;7.82;;
43678;SDS011;29279;50.858;4.392;2023-03-01T01:42:31;18.45;;;8.82;;
43678;SDS011;29279;50.858;4.392;2023-03-01T01:47:54;14.73;;;8.13;;
43678;SDS011;29279;50.858;4.392;2023-03-01T01:50:23;14.52;;;8.25;;
43678;SDS011;29279;50.858;4.392;2023-03-01T01:52:50;15.65;;;8.30;;
43678;SDS011;29279;50.858;4.392;2023-03-01T01:55:19;15.63;;;8.27;;
43678;SDS011;29279;50.858;4.392;2023-03-01T01:57:53;13.55;;;8.23;;
43678;SDS011;29279;50.858;4.392;2023-03-01T02:00:22;12.32;;;7.82;;
43678;SDS011;29279;50.858;4.392;2023-03-01T02:02:51;13.35;;;8.07;;
43678;SDS011;29279;50.858;4.392;2023-03-01T02:07:58;14.55;;;8.65;;
43678;SDS011;29279;50.858;4.392;2023-03-01T02:10:24;11.60;;;7.65;;
43678;SDS011;29279;50.858;4.392;2023-03-01T02:12:51;16.75;;;8.68;;
43678;SDS011;29279;50.858;4.392;2023-03-01T02:15:18;18.42;;;8.70;;
43678;SDS011;29279;50.858;4.392;2023-03-01T02:17:44;14.90;;;7.55;;
43678;SDS011;29279;50.858;4.392;2023-03-01T02:22:46;16.27;;;7.97;;
43678;SDS011;29279;50.858;4.392;2023-03-01T02:25:19;15.85;;;8.05;;
43678;SDS011;29279;50.858;4.392;2023-03-01T02:27:50;13.15;;;8.45;;
43678;SDS011;29279;50.858;4.392;2023-03-01T02:30:25;16.38;;;8.43;;
43678;SDS011;29279;50.858;4.392;2023-03-01T02:32:51;13.98;;;8.43;;
43678;SDS011;29279;50.858;4.392;2023-03-01T02:35:18;13.07;;;7.85;;
43678;SDS011;29279;50.858;4.392;2023-03-01T02:37:45;12.38;;;7.40;;
43678;SDS011;29279;50.858;4.392;2023-03-01T02:40:17;19.08;;;8.15;;
43678;SDS011;29279;50.858;4.392;2023-03-01T02:42:48;17.88;;;7.65;;
43678;SDS011;29279;50.858;4.392;2023-03-01T02:45:17;13.40;;;8.25;;
43678;SDS011;29279;50.858;4.392;2023-03-01T02:47:43;24.10;;;8.55;;
43678;SDS011;29279;50.858;4.392;2023-03-01T02:50:15;13.00;;;8.30;;
43678;SDS011;29279;50.858;4.392;2023-03-01T02:53:04;13.77;;;7.88;;
43678;SDS011;29279;50.858;4.392;2023-03-01T02:55:47;13.85;;;7.95;;
43678;SDS011;29279;50.858;4.392;2023-03-01T02:58:13;15.73;;;8.73;;
43678;SDS011;29279;50.858;4.392;2023-03-01T03:00:40;14.63;;;8.15;;
43678;SDS011;29279;50.858;4.392;2023-03-01T03:03:13;12.57;;;8.30;;
43678;SDS011;29279;50.858;4.392;2023-03-01T03:05:40;12.20;;;8.40;;
43678;SDS011;29279;50.858;4.392;2023-03-01T03:08:05;17.67;;;9.07;;
43678;SDS011;29279;50.858;4.392;2023-03-01T03:10:33;15.18;;;8.25;;
43678;SDS011;29279;50.858;4.392;2023-03-01T03:13:02;19.65;;;9.10;;
43678;SDS011;29279;50.858;4.392;2023-03-01T03:15:30;16.52;;;8.48;;
43678;SDS011;29279;50.858;4.392;2023-03-01T03:17:57;16.02;;;9.57;;
43678;SDS011;29279;50.858;4.392;2023-03-01T03:20:24;15.40;;;7.88;;
43678;SDS011;29279;50.858;4.392;2023-03-01T03:22:52;17.08;;;8.02;;
43678;SDS011;29279;50.858;4.392;2023-03-01T03:25:20;15.82;;;8.20;;
43678;SDS011;29279;50.858;4.392;2023-03-01T03:27:47;14.75;;;8.70;;
43678;SDS011;29279;50.858;4.392;2023-03-01T03:30:15;17.08;;;8.02;;
43678;SDS011;29279;50.858;4.392;2023-03-01T03:32:43;15.63;;;8.30;;
43678;SDS011;29279;50.858;4.392;2023-03-01T03:35:22;17.70;;;9.05;;
43678;SDS011;29279;50.858;4.392;2023-03-01T03:37:55;14.48;;;8.60;;
43678;SDS011;29279;50.858;4.392;2023-03-01T03:43:04;15.85;;;8.43;;
43678;SDS011;29279;50.858;4.392;2023-03-01T03:45:35;13.13;;;8.23;;
43678;SDS011;29279;50.858;4.392;2023-03-01T03:48:01;15.45;;;9.52;;
43678;SDS011;29279;50.858;4.392;2023-03-01T03:50:29;16.60;;;8.75;;
43678;SDS011;29279;50.858;4.392;2023-03-01T03:52:55;18.55;;;8.93;;
43678;SDS011;29279;50.858;4.392;2023-03-01T03:55:21;14.85;;;8.55;;
43678;SDS011;29279;50.858;4.392;2023-03-01T03:57:47;13.82;;;8.30;;
43678;SDS011;29279;50.858;4.392;2023-03-01T04:00:15;16.58;;;8.55;;
43678;SDS011;29279;50.858;4.392;2023-03-01T04:02:41;15.77;;;9.45;;
43678;SDS011;29279;50.858;4.392;2023-03-01T04:05:08;21.05;;;9.15;;
43678;SDS011;29279;50.858;4.392;2023-03-01T04:07:35;18.73;;;9.50;;
43678;SDS011;29279;50.858;4.392;2023-03-01T04:10:03;17.40;;;8.77;;
43678;SDS011;29279;50.858;4.392;2023-03-01T04:12:31;14.75;;;9.02;;
43678;SDS011;29279;50.858;4.392;2023-03-01T04:14:59;20.85;;;8.75;;
43678;SDS011;29279;50.858;4.392;2023-03-01T04:17:25;16.63;;;9.13;;
43678;SDS011;29279;50.858;4.392;2023-03-01T04:19:51;19.30;;;9.07;;
43678;SDS011;29279;50.858;4.392;2023-03-01T04:22:16;15.35;;;9.07;;
43678;SDS011;29279;50.858;4.392;2023-03-01T04:24:43;14.85;;;8.57;;
43678;SDS011;29279;50.858;4.392;2023-03-01T04:27:10;17.02;;;9.32;;
43678;SDS011;29279;50.858;4.392;2023-03-01T04:29:36;15.50;;;8.77;;
43678;SDS011;29279;50.858;4.392;2023-03-01T04:32:02;18.77;;;9.20;;
43678;SDS011;29279;50.858;4.392;2023-03-01T04:34:28;18.00;;;9.00;;
43678;SDS011;29279;50.858;4.392;2023-03-01T04:36:54;13.95;;;8.82;;
43678;SDS011;29279;50.858;4.392;2023-03-01T04:39:20;19.90;;;8.77;;
43678;SDS011;29279;50.858;4.392;2023-03-01T04:41:46;14.98;;;8.57;;
43678;SDS011;29279;50.858;4.392;2023-03-01T04:44:12;19.75;;;8.82;;
43678;SDS011;29279;50.858;4.392;2023-03-01T04:46:38;17.38;;;9.55;;
43678;SDS011;29279;50.858;4.392;2023-03-01T04:49:04;17.30;;;9.18;;
43678;SDS011;29279;50.858;4.392;2023-03-01T04:51:30;18.38;;;10.20;;
43678;SDS011;29279;50.858;4.392;2023-03-01T04:53:57;19.58;;;9.55;;
43678;SDS011;29279;50.858;4.392;2023-03-01T04:56:23;15.05;;;8.73;;
43678;SDS011;29279;50.858;4.392;2023-03-01T04:58:49;12.32;;;8.27;;
43678;SDS011;29279;50.858;4.392;2023-03-01T05:01:20;17.92;;;9.55;;
43678;SDS011;29279;50.858;4.392;2023-03-01T05:03:50;20.27;;;9.15;;
43678;SDS011;29279;50.858;4.392;2023-03-01T05:06:16;20.77;;;10.43;;
43678;SDS011;29279;50.858;4.392;2023-03-01T05:08:43;14.27;;;8.80;;
43678;SDS011;29279;50.858;4.392;2023-03-01T05:11:10;17.77;;;9.45;;
43678;SDS011;29279;50.858;4.392;2023-03-01T05:13:36;14.27;;;8.57;;
43678;SDS011;29279;50.858;4.392;2023-03-01T05:16:03;17.58;;;9.20;;
43678;SDS011;29279;50.858;4.392;2023-03-01T05:18:31;16.20;;;9.43;;
43678;SDS011;29279;50.858;4.392;2023-03-01T05:21:03;25.83;;;9.95;;
43678;SDS011;29279;50.858;4.392;2023-03-01T05:23:33;16.50;;;9.60;;
43678;SDS011;29279;50.858;4.392;2023-03-01T05:26:00;15.35;;;9.40;;
43678;SDS011;29279;50.858;4.392;2023-03-01T05:28:27;18.10;;;9.25;;
43678;SDS011;29279;50.858;4.392;2023-03-01T05:30:53;19.13;;;9.25;;
43678;SDS011;29279;50.858;4.392;2023-03-01T05:33:19;17.77;;;8.93;;
43678;SDS011;29279;50.858;4.392;2023-03-01T05:35:46;19.38;;;9.68;;
43678;SDS011;29279;50.858;4.392;2023-03-01T05:38:14;16.42;;;10.02;;
43678;SDS011;29279;50.858;4.392;2023-03-01T05:40:41;20.80;;;9.48;;
43678;SDS011;29279;50.858;4.392;2023-03-01T05:43:11;27.75;;;9.52;;
43678;SDS011;29279;50.858;4.392;2023-03-01T05:45:38;18.08;;;10.27;;
43678;SDS011;29279;50.858;4.392;2023-03-01T05:48:05;21.58;;;10.05;;
43678;SDS011;29279;50.858;4.392;2023-03-01T05:50:33;20.90;;;9.57;;
43678;SDS011;29279;50.858;4.392;2023-03-01T05:53:01;20.58;;;10.15;;
43678;SDS011;29279;50.858;4.392;2023-03-01T05:55:28;25.75;;;9.77;;
43678;SDS011;29279;50.858;4.392;2023-03-01T05:58:00;20.75;;;9.43;;
43678;SDS011;29279;50.858;4.392;2023-03-01T06:00:28;16.52;;;8.80;;
43678;SDS011;29279;50.858;4.392;2023-03-01T06:02:54;18.42;;;9.70;;
43678;SDS011;29279;50.858;4.392;2023-03-01T06:05:21;17.85;;;8.93;;
43678;SDS011;29279;50.858;4.392;2023-03-01T06:07:47;19.00;;;9.20;;
43678;SDS011;29279;50.858;4.392;2023-03-01T06:10:14;18.77;;;10.00;;
43678;SDS011;29279;50.858;4.392;2023-03-01T06:12:40;22.77;;;9.35;;
43678;SDS011;29279;50.858;4.392;2023-03-01T06:15:07;17.83;;;9.02;;
43678;SDS011;29279;50.858;4.392;2023-03-01T06:17:36;16.42;;;9.63;;
43678;SDS011;29279;50.858;4.392;2023-03-01T06:20:04;29.80;;;10.48;;
43678;SDS011;29279;50.858;4.392;2023-03-01T06:22:30;23.10;;;9.70;;
43678;SDS011;29279;50.858;4.392;2023-03-01T06:24:56;17.08;;;8.82;;
43678;SDS011;29279;50.858;4.392;2023-03-01T06:27:22;19.33;;;10.15;;
43678;SDS011;29279;50.858;4.392;2023-03-01T06:29:47;20.15;;;8.90;;
43678;SDS011;29279;50.858;4.392;2023-03-01T06:32:13;21.38;;;9.70;;
43678;SDS011;29279;50.858;4.392;2023-03-01T06:34:39;15.43;;;8.98;;
43678;SDS011;29279;50.858;4.392;2023-03-01T06:37:06;14.07;;;8.45;;
43678;SDS011;29279;50.858;4.392;2023-03-01T06:39:32;26.92;;;9.35;;
43678;SDS011;29279;50.858;4.392;2023-03-01T06:41:58;15.63;;;8.27;;
43678;SDS011;29279;50.858;4.392;2023-03-01T06:44:24;19.77;;;8.90;;
43678;SDS011;29279;50.858;4.392;2023-03-01T06:46:50;18.33;;;9.70;;
43678;SDS011;29279;50.858;4.392;2023-03-01T06:49:15;16.20;;;10.27;;
43678;SDS011;29279;50.858;4.392;2023-03-01T06:51:42;20.52;;;9.30;;
43678;SDS011;29279;50.858;4.392;2023-03-01T06:54:08;23.15;;;9.55;;
43678;SDS011;29279;50.858;4.392;2023-03-01T06:56:34;13.13;;;8.93;;
43678;SDS011;29279;50.858;4.392;2023-03-01T06:59:00;19.02;;;9.70;;
43678;SDS011;29279;50.858;4.392;2023-03-01T07:01:27;25.70;;;9.23;;
43678;SDS011;29279;50.858;4.392;2023-03-01T07:03:53;18.58;;;9.18;;
43678;SDS011;29279;50.858;4.392;2023-03-01T07:06:19;17.25;;;10.68;;
43678;SDS011;29279;50.858;4.392;2023-03-01T07:08:45;17.92;;;9.18;;
43678;SDS011;29279;50.858;4.392;2023-03-01T07:11:11;15.00;;;8.88;;
43678;SDS011;29279;50.858;4.392;2023-03-01T07:13:37;18.33;;;10.27;;
43678;SDS011;29279;50.858;4.392;2023-03-01T07:16:06;20.52;;;9.68;;
43678;SDS011;29279;50.858;4.392;2023-03-01T07:18:32;15.75;;;8.82;;
43678;SDS011;29279;50.858;4.392;2023-03-01T07:20:58;20.90;;;10.13;;
43678;SDS011;29279;50.858;4.392;2023-03-01T07:23:28;15.23;;;9.02;;
43678;SDS011;29279;50.858;4.392;2023-03-01T07:25:54;20.58;;;9.68;;
43678;SDS011;29279;50.858;4.392;2023-03-01T07:28:22;16.63;;;9.73;;
43678;SDS011;29279;50.858;4.392;2023-03-01T07:30:48;22.23;;;10.15;;
43678;SDS011;29279;50.858;4.392;2023-03-01T07:33:14;21.88;;;9.55;;
43678;SDS011;29279;50.858;4.392;2023-03-01T07:35:40;18.38;;;10.35;;
43678;SDS011;29279;50.858;4.392;2023-03-01T07:38:05;16.63;;;9.70;;
43678;SDS011;29279;50.858;4.392;2023-03-01T07:40:31;20.00;;;9.55;;
43678;SDS011;29279;50.858;4.392;2023-03-01T07:42:57;16.38;;;9.25;;
43678;SDS011;29279;50.858;4.392;2023-03-01T07:45:27;21.77;;;9.43;;
43678;SDS011;29279;50.858;4.392;2023-03-01T07:47:54;23.80;;;9.75;;
43678;SDS011;29279;50.858;4.392;2023-03-01T07:50:20;17.45;;;9.45;;
43678;SDS011;29279;50.858;4.392;2023-03-01T07:52:47;15.70;;;9.27;;
43678;SDS011;29279;50.858;4.392;2023-03-01T07:55:14;17.70;;;9.68;;
43678;SDS011;29279;50.858;4.392;2023-03-01T07:57:40;18.80;;;9.85;;
43678;SDS011;29279;50.858;4.392;2023-03-01T08:00:06;21.25;;;9.98;;
43678;SDS011;29279;50.858;4.392;2023-03-01T08:02:33;21.73;;;9.65;;
43678;SDS011;29279;50.858;4.392;2023-03-01T08:04:58;17.63;;;9.85;;
43678;SDS011;29279;50.858;4.392;2023-03-01T08:07:24;15.02;;;9.43;;
43678;SDS011;29279;50.858;4.392;2023-03-01T08:09:50;17.92;;;9.55;;
43678;SDS011;29279;50.858;4.392;2023-03-01T08:12:15;18.45;;;9.07;;
43678;SDS011;29279;50.858;4.392;2023-03-01T08:14:42;17.25;;;10.02;;
43678;SDS011;29279;50.858;4.392;2023-03-01T08:17:07;15.35;;;9.43;;
43678;SDS011;29279;50.858;4.392;2023-03-01T08:19:33;14.20;;;9.48;;
43678;SDS011;29279;50.858;4.392;2023-03-01T08:22:00;15.63;;;9.35;;
43678;SDS011;29279;50.858;4.392;2023-03-01T08:24:27;16.58;;;9.43;;
43678;SDS011;29279;50.858;4.392;2023-03-01T08:26:56;21.33;;;9.30;;
43678;SDS011;29279;50.858;4.392;2023-03-01T08:29:22;21.77;;;10.07;;
43678;SDS011;29279;50.858;4.392;2023-03-01T08:31:49;13.52;;;9.20;;
43678;SDS011;29279;50.858;4.392;2023-03-01T08:34:16;15.02;;;9.77;;
43678;SDS011;29279;50.858;4.392;2023-03-01T08:36:43;19.38;;;9.73;;
43678;SDS011;29279;50.858;4.392;2023-03-01T08:39:11;21.55;;;10.18;;
43678;SDS011;29279;50.858;4.392;2023-03-01T08:41:38;16.00;;;9.07;;
43678;SDS011;29279;50.858;4.392;2023-03-01T08:44:04;16.17;;;9.05;;
43678;SDS011;29279;50.858;4.392;2023-03-01T08:46:31;18.50;;;9.20;;
43678;SDS011;29279;50.858;4.392;2023-03-01T08:48:58;17.13;;;9.80;;
43678;SDS011;29279;50.858;4.392;2023-03-01T08:51:25;13.95;;;9.48;;
43678;SDS011;29279;50.858;4.392;2023-03-01T08:53:51;19.02;;;8.85;;
43678;SDS011;29279;50.858;4.392;2023-03-01T08:56:18;16.85;;;9.02;;
43678;SDS011;29279;50.858;4.392;2023-03-01T08:58:45;20.60;;;9.77;;
43678;SDS011;29279;50.858;4.392;2023-03-01T09:01:13;16.27;;;8.93;;
43678;SDS011;29279;50.858;4.392;2023-03-01T09:03:40;19.23;;;9.63;;
43678;SDS011;29279;50.858;4.392;2023-03-01T09:06:07;15.05;;;9.95;;
43678;SDS011;29279;50.858;4.392;2023-03-01T09:08:37;15.35;;;9.15;;
43678;SDS011;29279;50.858;4.392;2023-03-01T09:11:04;15.23;;;8.80;;
43678;SDS011;29279;50.858;4.392;2023-03-01T09:13:31;15.25;;;9.55;;
43678;SDS011;29279;50.858;4.392;2023-03-01T09:15:58;17.00;;;8.85;;
43678;SDS011;29279;50.858;4.392;2023-03-01T09:18:25;13.02;;;8.50;;
43678;SDS011;29279;50.858;4.392;2023-03-01T09:20:50;20.30;;;9.30;;
43678;SDS011;29279;50.858;4.392;2023-03-01T09:23:16;16.23;;;9.35;;
43678;SDS011;29279;50.858;4.392;2023-03-01T09:25:42;20.10;;;9.93;;
43678;SDS011;29279;50.858;4.392;2023-03-01T09:28:07;15.05;;;9.48;;
43678;SDS011;29279;50.858;4.392;2023-03-01T09:30:33;13.98;;;9.20;;
43678;SDS011;29279;50.858;4.392;2023-03-01T09:32:59;14.88;;;8.85;;
43678;SDS011;29279;50.858;4.392;2023-03-01T09:35:24;17.60;;;9.40;;
43678;SDS011;29279;50.858;4.392;2023-03-01T09:37:50;16.00;;;9.00;;
43678;SDS011;29279;50.858;4.392;2023-03-01T09:40:20;14.70;;;9.15;;
43678;SDS011;29279;50.858;4.392;2023-03-01T09:45:35;18.15;;;10.68;;
43678;SDS011;29279;50.858;4.392;2023-03-01T09:48:10;12.95;;;9.30;;
43678;SDS011;29279;50.858;4.392;2023-03-01T09:50:41;13.68;;;9.38;;
43678;SDS011;29279;50.858;4.392;2023-03-01T09:53:10;12.40;;;9.13;;
43678;SDS011;29279;50.858;4.392;2023-03-01T09:56:00;13.73;;;9.02;;
43678;SDS011;29279;50.858;4.392;2023-03-01T10:06:42;23.75;;;9.63;;
43678;SDS011;29279;50.858;4.392;2023-03-01T10:09:21;20.33;;;11.45;;
43678;SDS011;29279;50.858;4.392;2023-03-01T10:11:48;16.73;;;9.43;;
43678;SDS011;29279;50.858;4.392;2023-03-01T10:17:30;16.40;;;9.73;;
43678;SDS011;29279;50.858;4.392;2023-03-01T10:20:14;19.50;;;9.68;;
43678;SDS011;29279;50.858;4.392;2023-03-01T10:22:42;17.42;;;9.65;;
43678;SDS011;29279;50.858;4.392;2023-03-01T10:25:12;13.57;;;10.30;;
43678;SDS011;29279;50.858;4.392;2023-03-01T10:28:01;14.35;;;9.50;;
43678;SDS011;29279;50.858;4.392;2023-03-01T10:30:34;17.85;;;9.25;;
43678;SDS011;29279;50.858;4.392;2023-03-01T10:33:15;11.77;;;8.90;;
43678;SDS011;29279;50.858;4.392;2023-03-01T10:35:45;15.07;;;8.80;;
43678;SDS011;29279;50.858;4.392;2023-03-01T10:38:12;14.52;;;9.00;;
43678;SDS011;29279;50.858;4.392;2023-03-01T10:51:30;13.73;;;9.15;;
43678;SDS011;29279;50.858;4.392;2023-03-01T10:53:56;13.63;;;8.48;;
43678;SDS011;29279;50.858;4.392;2023-03-01T10:56:21;14.77;;;8.68;;
43678;SDS011;29279;50.858;4.392;2023-03-01T10:58:57;11.60;;;8.73;;
43678;SDS011;29279;50.858;4.392;2023-03-01T11:01:25;14.65;;;8.57;;
43678;SDS011;29279;50.858;4.392;2023-03-01T11:06:31;14.32;;;8.90;;
43678;SDS011;29279;50.858;4.392;2023-03-01T11:09:01;14.13;;;8.88;;
43678;SDS011;29279;50.858;4.392;2023-03-01T11:11:39;13.45;;;7.53;;
43678;SDS011;29279;50.858;4.392;2023-03-01T11:14:21;13.98;;;9.52;;
43678;SDS011;29279;50.858;4.392;2023-03-01T11:16:58;11.88;;;8.63;;
43678;SDS011;29279;50.858;4.392;2023-03-01T11:19:29;13.38;;;8.50;;
43678;SDS011;29279;50.858;4.392;2023-03-01T11:24:22;13.00;;;9.18;;
43678;SDS011;29279;50.858;4.392;2023-03-01T11:26:54;13.27;;;8.85;;
43678;SDS011;29279;50.858;4.392;2023-03-01T11:29:25;11.27;;;8.80;;
43678;SDS011;29279;50.858;4.392;2023-03-01T11:31:58;18.88;;;9.00;;
43678;SDS011;29279;50.858;4.392;2023-03-01T11:37:09;17.77;;;8.93;;
43678;SDS011;29279;50.858;4.392;2023-03-01T11:39:50;15.97;;;9.43;;
43678;SDS011;29279;50.858;4.392;2023-03-01T11:42:48;11.10;;;7.95;;
43678;SDS011;29279;50.858;4.392;2023-03-01T11:45:18;14.20;;;9.45;;
43678;SDS011;29279;50.858;4.392;2023-03-01T11:59:04;11.73;;;7.93;;
43678;SDS011;29279;50.858;4.392;2023-03-01T12:02:00;11.05;;;7.47;;
43678;SDS011;29279;50.858;4.392;2023-03-01T12:10:23;12.18;;;7.25;;
43678;SDS011;29279;50.858;4.392;2023-03-01T12:16:07;12.10;;;7.15;;
43678;SDS011;29279;50.858;4.392;2023-03-01T12:21:48;11.82;;;7.43;;
43678;SDS011;29279;50.858;4.392;2023-03-01T12:30:16;12.15;;;6.70;;
43678;SDS011;29279;50.858;4.392;2023-03-01T12:32:58;15.63;;;7.82;;
43678;SDS011;29279;50.858;4.392;2023-03-01T12:35:51;9.77;;;7.22;;
43678;SDS011;29279;50.858;4.392;2023-03-01T12:38:31;14.32;;;8.07;;
43678;SDS011;29279;50.858;4.392;2023-03-01T12:43:54;13.68;;;7.40;;
43678;SDS011;29279;50.858;4.392;2023-03-01T12:49:22;17.15;;;6.90;;
43678;SDS011;29279;50.858;4.392;2023-03-01T12:51:55;22.13;;;9.40;;
43678;SDS011;29279;50.858;4.392;2023-03-01T12:54:29;14.52;;;8.15;;
43678;SDS011;29279;50.858;4.392;2023-03-01T12:57:01;14.68;;;7.90;;
43678;SDS011;29279;50.858;4.392;2023-03-01T12:59:38;14.65;;;7.93;;
43678;SDS011;29279;50.858;4.392;2023-03-01T13:10:23;14.02;;;8.50;;
43678;SDS011;29279;50.858;4.392;2023-03-01T13:17:54;12.95;;;8.65;;
43678;SDS011;29279;50.858;4.392;2023-03-01T13:20:45;13.10;;;9.05;;
43678;SDS011;29279;50.858;4.392;2023-03-01T13:26:04;13.63;;;8.27;;
43678;SDS011;29279;50.858;4.392;2023-03-01T13:33:51;14.68;;;7.85;;
43678;SDS011;29279;50.858;4.392;2023-03-01T13:44:48;19.73;;;8.65;;
43678;SDS011;29279;50.858;4.392;2023-03-01T13:46:52;12.88;;;7.15;;
43678;SDS011;29279;50.858;4.392;2023-03-01T13:49:22;11.32;;;7.72;;
43678;SDS011;29279;50.858;4.392;2023-03-01T13:51:53;14.50;;;8.23;;
43678;SDS011;29279;50.858;4.392;2023-03-01T13:54:25;14.13;;;8.02;;
43678;SDS011;29279;50.858;4.392;2023-03-01T13:56:54;10.85;;;7.78;;
43678;SDS011;29279;50.858;4.392;2023-03-01T13:59:21;20.40;;;8.38;;
43678;SDS011;29279;50.858;4.392;2023-03-01T14:01:54;16.70;;;8.35;;
43678;SDS011;29279;50.858;4.392;2023-03-01T14:09:59;16.23;;;9.85;;
43678;SDS011;29279;50.858;4.392;2023-03-01T14:15:31;11.82;;;7.47;;
43678;SDS011;29279;50.858;4.392;2023-03-01T14:20:39;15.23;;;8.05;;
43678;SDS011;29279;50.858;4.392;2023-03-01T14:23:12;16.85;;;9.60;;
43678;SDS011;29279;50.858;4.392;2023-03-01T14:25:46;16.13;;;8.23;;
43678;SDS011;29279;50.858;4.392;2023-03-01T14:28:21;14.40;;;8.52;;
43678;SDS011;29279;50.858;4.392;2023-03-01T14:30:51;14.75;;;8.35;;
43678;SDS011;29279;50.858;4.392;2023-03-01T14:33:22;11.20;;;8.35;;
43678;SDS011;29279;50.858;4.392;2023-03-01T14:38:22;12.80;;;8.02;;
43678;SDS011;29279;50.858;4.392;2023-03-01T14:40:55;13.03;;;8.03;;
43678;SDS011;29279;50.858;4.392;2023-03-01T14:43:24;12.85;;;8.30;;
43678;SDS011;29279;50.858;4.392;2023-03-01T14:45:53;12.80;;;8.10;;
43678;SDS011;29279;50.858;4.392;2023-03-01T14:48:19;16.88;;;9.40;;
43678;SDS011;29279;50.858;4.392;2023-03-01T14:50:45;16.13;;;9.45;;
43678;SDS011;29279;50.858;4.392;2023-03-01T14:53:15;13.73;;;9.35;;
43678;SDS011;29279;50.858;4.392;2023-03-01T14:55:52;15.55;;;8.90;;
43678;SDS011;29279;50.858;4.392;2023-03-01T14:58:27;14.07;;;8.27;;
43678;SDS011;29279;50.858;4.392;2023-03-01T15:00:54;14.93;;;8.32;;
43678;SDS011;29279;50.858;4.392;2023-03-01T15:05:55;17.15;;;8.52;;
43678;SDS011;29279;50.858;4.392;2023-03-01T15:08:22;15.00;;;8.82;;
43678;SDS011;29279;50.858;4.392;2023-03-01T15:13:29;13.60;;;8.35;;
43678;SDS011;29279;50.858;4.392;2023-03-01T15:18:31;14.00;;;8.90;;
43678;SDS011;29279;50.858;4.392;2023-03-01T15:21:20;13.27;;;8.15;;
43678;SDS011;29279;50.858;4.392;2023-03-01T15:23:52;14.75;;;8.40;;
43678;SDS011;29279;50.858;4.392;2023-03-01T15:26:59;15.52;;;8.05;;
43678;SDS011;29279;50.858;4.392;2023-03-01T15:29:24;23.75;;;9.63;;
43678;SDS011;29279;50.858;4.392;2023-03-01T15:32:05;13.20;;;8.43;;
43678;SDS011;29279;50.858;4.392;2023-03-01T15:34:47;16.45;;;9.40;;
43678;SDS011;29279;50.858;4.392;2023-03-01T15:40:22;15.18;;;9.43;;
43678;SDS011;29279;50.858;4.392;2023-03-01T15:42:56;15.93;;;9.32;;
43678;SDS011;29279;50.858;4.392;2023-03-01T15:45:24;17.77;;;9.02;;
43678;SDS011;29279;50.858;4.392;2023-03-01T15:48:02;19.38;;;9.13;;
43678;SDS011;29279;50.858;4.392;2023-03-01T15:50:31;15.50;;;9.05;;
43678;SDS011;29279;50.858;4.392;2023-03-01T15:52:59;14.65;;;9.25;;
43678;SDS011;29279;50.858;4.392;2023-03-01T15:55:30;13.00;;;8.10;;
43678;SDS011;29279;50.858;4.392;2023-03-01T15:58:03;18.93;;;9.57;;
43678;SDS011;29279;50.858;4.392;2023-03-01T16:00:31;14.35;;;8.60;;
43678;SDS011;29279;50.858;4.392;2023-03-01T16:02:58;12.52;;;8.23;;
43678;SDS011;29279;50.858;4.392;2023-03-01T16:05:25;13.07;;;8.73;;
43678;SDS011;29279;50.858;4.392;2023-03-01T16:07:53;14.52;;;8.27;;
43678;SDS011;29279;50.858;4.392;2023-03-01T16:10:32;15.25;;;8.55;;
43678;SDS011;29279;50.858;4.392;2023-03-01T16:12:59;16.55;;;8.90;;
43678;SDS011;29279;50.858;4.392;2023-03-01T16:15:29;17.70;;;10.02;;
43678;SDS011;29279;50.858;4.392;2023-03-01T16:17:56;18.73;;;8.77;;
43678;SDS011;29279;50.858;4.392;2023-03-01T16:20:25;15.20;;;7.93;;
43678;SDS011;29279;50.858;4.392;2023-03-01T16:22:51;17.98;;;8.18;;
43678;SDS011;29279;50.858;4.392;2023-03-01T16:25:18;16.23;;;8.82;;
43678;SDS011;29279;50.858;4.392;2023-03-01T16:27:45;22.75;;;8.68;;
43678;SDS011;29279;50.858;4.392;2023-03-01T16:30:13;19.70;;;8.52;;
43678;SDS011;29279;50.858;4.392;2023-03-01T16:32:40;15.98;;;8.77;;
43678;SDS011;29279;50.858;4.392;2023-03-01T16:35:07;13.70;;;8.68;;
43678;SDS011;29279;50.858;4.392;2023-03-01T16:37:34;13.73;;;8.00;;
43678;SDS011;29279;50.858;4.392;2023-03-01T16:40:00;13.60;;;8.15;;
43678;SDS011;29279;50.858;4.392;2023-03-01T16:42:29;12.25;;;7.97;;
43678;SDS011;29279;50.858;4.392;2023-03-01T16:44:58;11.35;;;7.72;;
43678;SDS011;29279;50.858;4.392;2023-03-01T16:47:25;11.88;;;7.65;;
43678;SDS011;29279;50.858;4.392;2023-03-01T16:49:51;18.23;;;8.18;;
43678;SDS011;29279;50.858;4.392;2023-03-01T16:52:18;13.23;;;8.40;;
43678;SDS011;29279;50.858;4.392;2023-03-01T16:54:44;10.35;;;7.70;;
43678;SDS011;29279;50.858;4.392;2023-03-01T16:57:09;15.80;;;8.57;;